createdAt,value
2019-05-15T00:00:12.750Z,46.20
2019-05-15T00:02:41.214Z,46.20
2019-05-15T00:05:09.771Z,46.40
2019-05-15T00:07:39.121Z,46.50
2019-05-15T00:10:09.064Z,47.00
2019-05-15T00:12:39.449Z,47.40
2019-05-15T00:15:09.316Z,48.00
2019-05-15T00:17:39.478Z,48.20
2019-05-15T00:20:09.943Z,48.40
2019-05-15T00:22:39.110Z,48.80
2019-05-15T00:25:09.406Z,48.90
2019-05-15T00:27:38.845Z,49.30
2019-05-15T00:30:09.021Z,49.60
2019-05-15T00:32:39.430Z,49.90
2019-05-15T00:35:09.387Z,50.10
2019-05-15T00:37:38.815Z,50.60
2019-05-15T00:40:08.804Z,51.00
2019-05-15T00:42:38.321Z,51.10
2019-05-15T00:45:09.525Z,51.50
2019-05-15T00:47:39.752Z,51.80
2019-05-15T00:50:09.748Z,52.70
2019-05-15T00:52:39.296Z,51.90
2019-05-15T00:55:08.990Z,52.10
2019-05-15T00:57:39.299Z,52.30
2019-05-15T01:00:08.797Z,52.60
2019-05-15T01:02:38.779Z,52.90
2019-05-15T01:05:08.425Z,53.00
2019-05-15T01:07:38.918Z,53.40
2019-05-15T01:10:09.875Z,53.40
2019-05-15T01:12:38.658Z,53.60
2019-05-15T01:15:09.267Z,53.70
2019-05-15T01:17:39.004Z,54.00
2019-05-15T01:20:08.650Z,54.20
2019-05-15T01:22:39.312Z,54.10
2019-05-15T01:25:08.816Z,54.30
2019-05-15T01:27:38.711Z,54.40
2019-05-15T01:30:08.919Z,54.70
2019-05-15T01:32:39.470Z,55.00
2019-05-15T01:35:09.535Z,55.10
2019-05-15T01:37:39.009Z,55.30
2019-05-15T01:40:09.351Z,55.50
2019-05-15T01:42:38.893Z,55.80
2019-05-15T01:45:08.996Z,56.00
2019-05-15T01:47:38.865Z,56.30
2019-05-15T01:50:09.345Z,56.30
2019-05-15T01:52:39.211Z,56.40
2019-05-15T01:55:09.132Z,56.50
2019-05-15T01:57:38.418Z,56.70
2019-05-15T02:00:09.544Z,56.90
2019-05-15T02:02:39.000Z,57.10
2019-05-15T02:05:08.878Z,57.20
2019-05-15T02:07:39.118Z,57.50
2019-05-15T02:10:09.114Z,57.60
2019-05-15T02:12:38.936Z,57.80
2019-05-15T02:15:08.766Z,57.70
2019-05-15T02:17:39.346Z,57.80
2019-05-15T02:20:08.335Z,57.90
2019-05-15T02:22:42.084Z,57.90
2019-05-15T02:25:08.572Z,58.40
2019-05-15T02:27:39.381Z,58.50
2019-05-15T02:30:21.453Z,58.70
2019-05-15T02:32:39.876Z,58.90
2019-05-15T02:35:09.943Z,59.10
2019-05-15T02:37:40.751Z,59.50
2019-05-15T02:40:10.389Z,59.60
2019-05-15T02:42:40.113Z,59.60
2019-05-15T02:45:10.267Z,59.60
2019-05-15T02:47:39.754Z,59.70
2019-05-15T02:50:10.559Z,60.00
2019-05-15T02:52:44.562Z,60.00
2019-05-15T02:55:09.743Z,60.10
2019-05-15T02:57:39.478Z,60.30
2019-05-15T03:00:10.823Z,60.40
2019-05-15T03:02:41.143Z,60.60
2019-05-15T03:05:09.653Z,61.10
2019-05-15T03:07:40.456Z,61.20
2019-05-15T03:10:09.723Z,61.20
2019-05-15T03:12:40.596Z,61.40
2019-05-15T03:15:09.697Z,61.40
2019-05-15T03:17:40.537Z,61.60
2019-05-15T03:20:10.379Z,61.90
2019-05-15T03:22:40.268Z,61.90
2019-05-15T03:25:10.696Z,61.90
2019-05-15T03:27:40.112Z,61.90
2019-05-15T03:30:13.109Z,62.50
2019-05-15T03:32:50.634Z,62.60
2019-05-15T03:35:14.622Z,62.90
2019-05-15T03:37:39.952Z,62.10
2019-05-15T03:40:10.385Z,62.70
2019-05-15T03:42:39.726Z,63.10
2019-05-15T03:45:10.117Z,63.30
2019-05-15T03:47:40.110Z,63.40
2019-05-15T03:50:09.702Z,63.70
2019-05-15T03:52:39.428Z,63.70
2019-05-15T03:55:10.979Z,63.90
2019-05-15T03:57:40.034Z,63.90
2019-05-15T04:00:10.320Z,64.20
2019-05-15T04:02:39.736Z,64.40
2019-05-15T04:05:11.821Z,64.60
2019-05-15T04:07:39.738Z,64.70
2019-05-15T04:10:10.126Z,64.60
2019-05-15T04:12:40.351Z,64.60
2019-05-15T04:15:10.478Z,64.50
2019-05-15T04:17:40.535Z,64.50
2019-05-15T04:20:10.497Z,64.50
2019-05-15T04:22:40.351Z,64.60
2019-05-15T04:25:09.909Z,64.90
2019-05-15T04:27:40.618Z,65.00
2019-05-15T04:30:10.926Z,65.80
2019-05-15T04:32:40.243Z,65.00
2019-05-15T04:35:09.607Z,65.00
2019-05-15T04:37:40.686Z,65.00
2019-05-15T04:40:09.505Z,65.20
2019-05-15T04:42:39.755Z,65.20
2019-05-15T04:45:10.659Z,65.30
2019-05-15T04:47:39.849Z,65.40
2019-05-15T04:50:09.230Z,65.20
2019-05-15T04:52:39.394Z,65.20
2019-05-15T04:55:10.277Z,65.30
2019-05-15T04:57:40.264Z,65.20
2019-05-15T05:00:09.860Z,65.40
2019-05-15T05:02:40.097Z,65.40
2019-05-15T05:05:10.705Z,65.40
2019-05-15T05:07:39.666Z,65.00
2019-05-15T05:10:09.835Z,64.80
2019-05-15T05:12:41.910Z,64.10
2019-05-15T05:15:09.262Z,63.60
2019-05-15T05:17:39.375Z,62.90
2019-05-15T05:20:08.428Z,62.50
2019-05-15T05:22:39.388Z,61.60
2019-05-15T05:25:08.194Z,61.00
2019-05-15T05:27:38.367Z,60.20
2019-05-15T05:30:08.827Z,59.40
2019-05-15T05:32:38.947Z,58.90
2019-05-15T05:35:08.617Z,58.30
2019-05-15T05:37:38.866Z,57.50
2019-05-15T05:40:08.029Z,56.70
2019-05-15T05:42:39.035Z,55.90
2019-05-15T05:45:09.288Z,55.20
2019-05-15T05:47:38.306Z,54.60
2019-05-15T05:50:08.660Z,54.00
2019-05-15T05:52:39.016Z,53.10
2019-05-15T05:55:08.755Z,52.50
2019-05-15T05:57:38.346Z,52.00
2019-05-15T06:00:09.334Z,51.50
2019-05-15T06:02:46.926Z,50.90
2019-05-15T06:05:08.387Z,50.30
2019-05-15T06:07:38.744Z,49.70
2019-05-15T06:10:09.023Z,48.90
2019-05-15T06:12:38.994Z,48.60
2019-05-15T06:15:08.907Z,48.40
2019-05-15T06:17:39.193Z,47.80
2019-05-15T06:20:08.190Z,47.60
2019-05-15T06:22:38.687Z,46.90
2019-05-15T06:25:10.733Z,45.80
2019-05-15T06:27:39.125Z,45.10
2019-05-15T06:30:08.804Z,45.10
2019-05-15T06:32:39.946Z,44.40
2019-05-15T06:35:09.162Z,44.70
2019-05-15T06:37:39.584Z,43.30
2019-05-15T06:40:08.600Z,42.70
2019-05-15T06:42:39.518Z,41.80
2019-05-15T06:45:08.183Z,41.20
2019-05-15T06:47:39.247Z,40.10
2019-05-15T06:50:10.378Z,39.80
2019-05-15T06:52:38.794Z,38.20
2019-05-15T06:55:09.236Z,36.30
2019-05-15T06:57:39.717Z,34.10
2019-05-15T07:00:13.902Z,32.40
2019-05-15T07:02:42.306Z,31.90
2019-05-15T07:05:10.954Z,31.40
2019-05-15T07:07:39.374Z,28.70
2019-05-15T07:10:09.144Z,29.10
2019-05-15T07:12:39.181Z,29.10
2019-05-15T07:15:09.181Z,28.80
2019-05-15T07:17:39.276Z,29.00
2019-05-15T07:20:09.038Z,28.80
2019-05-15T07:22:39.261Z,29.60
2019-05-15T07:25:09.833Z,28.70
2019-05-15T07:27:39.039Z,27.70
2019-05-15T07:30:11.645Z,28.00
2019-05-15T07:32:39.760Z,28.30
2019-05-15T07:35:10.146Z,28.40
2019-05-15T07:37:39.007Z,28.40
2019-05-15T07:40:10.743Z,28.00
2019-05-15T07:42:39.144Z,27.80
2019-05-15T07:45:09.567Z,27.00
2019-05-15T07:47:38.669Z,27.40
2019-05-15T07:50:09.320Z,26.80
2019-05-15T07:52:39.812Z,26.50
2019-05-15T07:55:09.199Z,25.80
2019-05-15T07:57:39.339Z,25.80
2019-05-15T08:00:18.780Z,25.20
2019-05-15T08:02:48.200Z,25.30
2019-05-15T08:05:18.754Z,25.30
2019-05-15T08:07:49.038Z,25.30
2019-05-15T08:10:18.511Z,25.20
2019-05-15T08:12:49.293Z,24.80
2019-05-15T08:15:18.389Z,24.90
2019-05-15T08:18:03.347Z,24.50
2019-05-15T08:20:19.119Z,24.00
2019-05-15T08:22:48.951Z,24.00
2019-05-15T08:25:31.125Z,23.10
2019-05-15T08:27:48.882Z,23.20
2019-05-15T08:30:18.415Z,22.80
2019-05-15T08:32:51.251Z,22.50
2019-05-15T08:35:19.106Z,22.80
2019-05-15T08:37:49.099Z,22.60
2019-05-15T08:40:18.230Z,22.60
2019-05-15T08:42:54.544Z,22.20
2019-05-15T08:45:18.904Z,22.10
2019-05-15T08:47:49.267Z,21.60
2019-05-15T08:50:19.254Z,21.40
2019-05-15T08:52:48.712Z,21.10
2019-05-15T08:55:20.114Z,21.10
2019-05-15T08:57:55.515Z,21.30
2019-05-15T09:00:18.688Z,19.20
2019-05-15T09:02:48.807Z,17.70
2019-05-15T09:05:19.502Z,18.70
2019-05-15T09:07:48.675Z,19.80
2019-05-15T09:10:18.355Z,20.10
2019-05-15T09:12:47.059Z,20.40
2019-05-15T09:15:24.588Z,20.40
2019-05-15T09:18:08.028Z,20.30
2019-05-15T09:20:23.206Z,19.40
2019-05-15T09:22:51.598Z,18.90
2019-05-15T09:25:20.357Z,18.80
2019-05-15T09:27:48.970Z,18.70
2019-05-15T09:30:19.180Z,18.30
2019-05-15T09:32:48.452Z,18.10
2019-05-15T09:35:20.205Z,18.40
2019-05-15T09:37:49.178Z,18.50
2019-05-15T09:40:18.733Z,18.70
2019-05-15T09:42:48.689Z,18.70
2019-05-15T09:45:18.047Z,18.60
2019-05-15T09:47:48.428Z,18.70
2019-05-15T09:50:19.389Z,17.90
2019-05-15T09:52:50.066Z,17.90
2019-05-15T09:55:19.226Z,17.30
2019-05-15T09:57:49.031Z,17.50
2019-05-15T10:00:19.471Z,17.80
2019-05-15T10:02:48.601Z,17.90
2019-05-15T10:05:18.696Z,18.10
2019-05-15T10:07:47.518Z,18.40
2019-05-15T10:10:19.198Z,17.80
2019-05-15T10:12:49.443Z,18.00
2019-05-15T10:15:18.575Z,18.00
2019-05-15T10:17:50.664Z,18.60
2019-05-15T10:20:18.845Z,18.20
2019-05-15T10:22:48.439Z,18.30
2019-05-15T10:25:19.017Z,18.20
2019-05-15T10:27:48.824Z,18.00
2019-05-15T10:30:18.899Z,18.00
2019-05-15T10:32:48.796Z,17.90
2019-05-15T10:35:25.745Z,17.60
2019-05-15T10:37:48.768Z,17.10
2019-05-15T10:40:20.421Z,17.70
2019-05-15T10:42:49.653Z,17.00
2019-05-15T10:45:19.238Z,16.90
2019-05-15T10:47:49.568Z,15.90
2019-05-15T10:50:19.094Z,15.70
2019-05-15T10:52:48.915Z,15.90
2019-05-15T10:55:18.905Z,16.00
2019-05-15T10:57:47.643Z,16.00
2019-05-15T11:00:19.457Z,16.00
2019-05-15T11:02:48.978Z,15.80
2019-05-15T11:05:19.089Z,15.60
2019-05-15T11:07:48.287Z,15.90
2019-05-15T11:10:18.579Z,16.20
2019-05-15T11:12:47.295Z,16.50
2019-05-15T11:15:18.445Z,16.90
2019-05-15T11:17:48.954Z,16.80
2019-05-15T11:20:18.839Z,17.10
2019-05-15T11:22:49.980Z,17.40
2019-05-15T11:25:17.313Z,17.70
2019-05-15T11:27:48.237Z,17.80
2019-05-15T11:30:18.898Z,17.90
2019-05-15T11:32:48.575Z,18.00
2019-05-15T11:35:18.547Z,18.00
2019-05-15T11:37:49.278Z,17.80
2019-05-15T11:40:18.867Z,17.50
2019-05-15T11:42:48.740Z,17.60
2019-05-15T11:45:18.653Z,18.40
2019-05-15T11:47:48.367Z,17.60
2019-05-15T11:50:20.435Z,17.00
2019-05-15T11:52:49.426Z,16.60
2019-05-15T11:55:18.183Z,17.50
2019-05-15T11:57:48.617Z,17.90
2019-05-15T12:00:26.423Z,18.20
2019-05-15T12:02:48.538Z,18.40
2019-05-15T12:05:18.231Z,17.90
2019-05-15T12:07:47.736Z,17.80
2019-05-15T12:10:18.568Z,17.80
2019-05-15T12:12:49.739Z,18.00
2019-05-15T12:15:19.102Z,17.90
2019-05-15T12:17:48.480Z,17.90
2019-05-15T12:20:19.315Z,18.00
2019-05-15T12:22:48.545Z,18.20
2019-05-15T12:25:17.458Z,18.10
2019-05-15T12:27:49.143Z,18.30
2019-05-15T12:30:19.952Z,18.20
2019-05-15T12:32:49.416Z,18.00
2019-05-15T12:35:20.474Z,18.30
2019-05-15T12:37:48.235Z,18.20
2019-05-15T13:00:20.784Z,18.90
2019-05-15T13:02:49.658Z,19.00
2019-05-15T13:05:19.236Z,19.00
2019-05-15T13:07:48.382Z,19.20
2019-05-15T13:10:18.553Z,19.30
2019-05-15T13:12:59.357Z,19.50
2019-05-15T13:15:19.094Z,18.90
2019-05-15T13:17:52.649Z,19.00
2019-05-15T13:20:18.636Z,19.20
2019-05-15T13:25:18.880Z,19.40
2019-05-15T13:27:48.794Z,19.60
2019-05-15T13:30:18.365Z,19.70
2019-05-15T13:32:49.631Z,19.80
2019-05-15T13:35:18.490Z,20.40
2019-05-15T13:37:49.199Z,20.10
2019-05-15T13:40:18.679Z,20.00
2019-05-15T13:42:48.570Z,20.00
2019-05-15T13:45:18.328Z,20.00
2019-05-15T13:47:47.144Z,20.30
2019-05-15T13:50:15.790Z,20.50
2019-05-15T13:52:44.194Z,20.50
2019-05-15T13:55:12.671Z,20.60
2019-05-15T13:57:41.077Z,20.30
2019-05-15T14:00:10.131Z,21.10
2019-05-15T14:02:38.974Z,20.80
2019-05-15T14:05:09.421Z,20.90
2019-05-15T14:07:48.932Z,21.00
2019-05-15T14:10:10.397Z,21.00
2019-05-15T14:12:38.869Z,21.20
2019-05-15T14:15:09.439Z,21.40
2019-05-15T14:17:38.215Z,21.40
2019-05-15T14:20:08.992Z,21.60
2019-05-15T14:22:38.913Z,21.60
2019-05-15T14:25:08.894Z,21.60
2019-05-15T14:27:39.863Z,21.80
2019-05-15T14:30:10.237Z,21.80
2019-05-15T14:32:39.536Z,21.90
2019-05-15T14:35:09.575Z,21.70
2019-05-15T14:37:38.063Z,21.80
2019-05-15T14:40:08.938Z,21.90
2019-05-15T14:42:39.577Z,22.00
2019-05-15T14:45:09.152Z,22.20
2019-05-15T14:47:39.095Z,22.40
2019-05-15T14:50:09.964Z,22.60
2019-05-15T14:52:38.663Z,22.80
2019-05-15T14:55:07.730Z,23.20
2019-05-15T14:57:39.079Z,22.90
2019-05-15T15:00:08.792Z,22.90
2019-05-15T15:02:38.957Z,22.80
2019-05-15T15:05:08.862Z,22.80
2019-05-15T15:07:38.237Z,22.80
2019-05-15T15:10:08.119Z,23.00
2019-05-15T15:12:39.090Z,23.30
2019-05-15T15:15:10.006Z,23.40
2019-05-15T15:17:38.546Z,23.30
2019-05-15T15:20:08.172Z,23.30
2019-05-15T15:22:39.138Z,23.60
2019-05-15T15:25:09.525Z,23.60
2019-05-15T15:27:38.966Z,23.80
2019-05-15T15:30:09.313Z,23.90
2019-05-15T15:32:38.472Z,24.00
2019-05-15T15:35:09.031Z,23.80
2019-05-15T15:37:38.432Z,23.60
2019-05-15T15:40:08.409Z,23.60
2019-05-15T15:42:39.305Z,23.70
2019-05-15T15:45:09.096Z,23.80
2019-05-15T15:47:39.045Z,23.80
2019-05-15T15:50:09.449Z,24.00
2019-05-15T15:52:38.559Z,24.10
2019-05-15T15:55:08.844Z,24.20
2019-05-15T15:57:39.853Z,24.20
2019-05-15T16:00:10.664Z,24.30
2019-05-15T16:02:41.080Z,24.40
2019-05-15T16:05:09.894Z,24.40
2019-05-15T16:07:38.701Z,24.40
2019-05-15T16:10:08.537Z,24.40
2019-05-15T16:12:38.837Z,24.30
2019-05-15T16:15:09.279Z,24.50
2019-05-15T16:17:38.594Z,24.60
2019-05-15T16:20:09.093Z,24.70
2019-05-15T16:22:38.455Z,24.80
2019-05-15T16:25:10.044Z,24.80
2019-05-15T16:27:38.901Z,24.80
2019-05-15T16:30:08.609Z,24.70
2019-05-15T16:32:38.892Z,24.80
2019-05-15T16:35:08.647Z,24.80
2019-05-15T16:37:38.860Z,25.00
2019-05-15T16:40:08.672Z,25.90
2019-05-15T16:42:38.612Z,25.70
2019-05-15T16:45:09.785Z,25.70
2019-05-15T16:47:38.897Z,25.60
2019-05-15T16:50:09.187Z,25.50
2019-05-15T16:52:38.934Z,25.40
2019-05-15T16:55:09.540Z,25.30
2019-05-15T16:57:38.808Z,25.30
2019-05-15T17:00:09.526Z,25.30
2019-05-15T17:02:39.479Z,25.40
2019-05-15T17:05:08.879Z,25.40
2019-05-15T17:07:38.728Z,25.50
2019-05-15T17:10:08.517Z,25.50
2019-05-15T17:12:38.721Z,25.50
2019-05-15T17:15:09.082Z,25.60
2019-05-15T17:17:38.795Z,25.60
2019-05-15T17:20:09.820Z,25.60
2019-05-15T17:22:38.622Z,25.70
2019-05-15T17:25:09.317Z,25.70
2019-05-15T17:27:38.513Z,25.70
2019-05-15T17:30:09.279Z,25.80
2019-05-15T17:32:38.861Z,25.80
2019-05-15T17:35:09.799Z,25.80
2019-05-15T17:37:38.689Z,25.90
2019-05-15T17:40:07.923Z,25.90
2019-05-15T17:42:38.885Z,25.90
2019-05-15T17:45:09.104Z,25.90
2019-05-15T17:47:38.713Z,26.00
2019-05-15T17:50:08.582Z,25.90
2019-05-15T17:52:38.661Z,26.00
2019-05-15T17:55:07.579Z,26.10
2019-05-15T17:57:39.017Z,26.20
2019-05-15T18:00:12.234Z,26.20
2019-05-15T18:02:39.297Z,26.40
2019-05-15T18:05:08.731Z,26.50
2019-05-15T18:07:39.037Z,26.40
2019-05-15T18:10:08.416Z,26.50
2019-05-15T18:12:38.874Z,26.50
2019-05-15T18:15:09.028Z,26.60
2019-05-15T18:17:39.142Z,26.60
2019-05-15T18:20:09.877Z,26.70
2019-05-15T18:22:38.830Z,26.70
2019-05-15T18:25:09.148Z,26.80
2019-05-15T18:27:38.789Z,26.90
2019-05-15T18:30:09.296Z,27.00
2019-05-15T18:32:39.149Z,27.20
2019-05-15T18:35:08.732Z,27.20
2019-05-15T18:37:39.355Z,27.30
2019-05-15T18:40:09.774Z,27.40
2019-05-15T18:42:39.199Z,27.70
2019-05-15T18:45:09.222Z,27.70
2019-05-15T18:47:39.267Z,27.80
2019-05-15T18:50:12.924Z,28.10
2019-05-15T18:52:38.591Z,28.00
2019-05-15T18:55:08.971Z,28.30
2019-05-15T18:57:40.062Z,28.30
2019-05-15T19:00:10.380Z,28.40
2019-05-15T19:02:39.494Z,28.50
2019-05-15T19:05:09.001Z,28.60
2019-05-15T19:07:38.334Z,28.60
2019-05-15T19:10:10.482Z,29.00
2019-05-15T19:12:39.269Z,29.00
2019-05-15T19:15:09.529Z,29.10
2019-05-15T19:17:38.836Z,29.10
2019-05-15T19:20:09.069Z,29.20
2019-05-15T19:22:40.641Z,29.30
2019-05-15T19:25:09.100Z,29.50
2019-05-15T19:27:39.548Z,29.50
2019-05-15T19:30:09.491Z,29.90
2019-05-15T19:32:40.083Z,29.80
2019-05-15T19:35:09.061Z,29.90
2019-05-15T19:37:38.321Z,29.90
2019-05-15T19:40:07.748Z,30.00
2019-05-15T19:42:38.436Z,30.00
2019-05-15T19:45:08.695Z,30.10
2019-05-15T19:47:38.665Z,30.10
2019-05-15T19:50:08.470Z,30.40
2019-05-15T19:52:37.446Z,30.20
2019-05-15T19:55:08.617Z,30.60
2019-05-15T19:57:38.707Z,30.80
2019-05-15T20:00:08.584Z,30.90
2019-05-15T20:02:38.176Z,30.90
2019-05-15T20:05:09.098Z,31.00
2019-05-15T20:07:38.980Z,31.40
2019-05-15T20:10:09.714Z,31.50
2019-05-15T20:12:38.830Z,31.60
2019-05-15T20:15:09.362Z,31.80
2019-05-15T20:17:38.630Z,32.20
2019-05-15T20:20:11.027Z,32.30
2019-05-15T20:22:40.178Z,32.70
2019-05-15T20:25:09.679Z,32.30
2019-05-15T20:27:39.068Z,32.50
2019-05-15T20:30:08.760Z,32.60
2019-05-15T20:32:38.634Z,32.70
2019-05-15T20:35:08.671Z,32.80
2019-05-15T20:37:39.157Z,32.90
2019-05-15T20:40:09.112Z,33.00
2019-05-15T20:42:38.588Z,33.10
2019-05-15T20:45:12.027Z,33.30
2019-05-15T20:47:38.866Z,34.10
2019-05-15T20:50:08.858Z,33.30
2019-05-15T20:52:39.473Z,33.20
2019-05-15T20:55:13.039Z,33.70
2019-05-15T20:57:41.989Z,33.90
2019-05-15T21:00:13.724Z,33.90
2019-05-15T21:02:42.158Z,34.30
2019-05-15T21:05:10.625Z,34.20
2019-05-15T21:07:42.921Z,34.50
2019-05-15T21:10:09.854Z,34.90
2019-05-15T21:12:41.229Z,35.10
2019-05-15T21:15:10.809Z,35.10
2019-05-15T21:17:40.821Z,35.50
2019-05-15T21:20:09.917Z,35.40
2019-05-15T21:22:40.302Z,35.40
2019-05-15T21:25:10.878Z,35.50
2019-05-15T21:27:42.061Z,35.60
2019-05-15T21:30:10.999Z,35.60
2019-05-15T21:32:39.428Z,35.70
2019-05-15T21:35:09.070Z,35.70
2019-05-15T21:37:39.023Z,36.00
2019-05-15T21:40:08.631Z,36.00
2019-05-15T21:42:38.912Z,36.30
2019-05-15T21:45:14.144Z,36.50
2019-05-15T21:47:39.286Z,37.00
2019-05-15T21:50:08.746Z,37.10
2019-05-15T21:52:38.993Z,37.00
2019-05-15T21:55:09.521Z,36.90
2019-05-15T21:57:40.405Z,36.90
2019-05-15T22:00:11.694Z,37.00
2019-05-15T22:02:40.454Z,37.20
2019-05-15T22:05:09.118Z,37.20
2019-05-15T22:07:38.901Z,37.30
2019-05-15T22:10:10.821Z,37.40
2019-05-15T22:12:38.976Z,37.50
2019-05-15T22:15:08.960Z,37.70
2019-05-15T22:17:38.702Z,37.60
2019-05-15T22:20:08.705Z,37.60
2019-05-15T22:22:37.421Z,37.80
2019-05-15T22:25:10.889Z,37.80
2019-05-15T22:27:38.315Z,38.00
2019-05-15T22:30:08.362Z,38.00
2019-05-15T22:32:41.246Z,38.30
2019-05-15T22:35:13.306Z,38.30
2019-05-15T22:37:42.286Z,38.30
2019-05-15T22:40:11.040Z,38.40
2019-05-15T22:42:39.786Z,38.50
2019-05-15T22:45:11.633Z,38.70
2019-05-15T22:47:39.195Z,38.70
2019-05-15T22:50:08.541Z,38.80
2019-05-15T22:52:38.925Z,38.80
2019-05-15T22:55:07.921Z,39.10
2019-05-15T22:57:38.667Z,39.20
2019-05-15T23:00:11.441Z,39.40
2019-05-15T23:02:39.868Z,39.70
2019-05-15T23:05:23.099Z,39.80
2019-05-15T23:07:39.180Z,40.20
2019-05-15T23:10:08.937Z,40.50
2019-05-15T23:12:38.187Z,41.00
2019-05-15T23:15:08.747Z,41.30
2019-05-15T23:17:38.357Z,42.30
2019-05-15T23:20:08.673Z,41.90
2019-05-15T23:22:38.584Z,42.20
2019-05-15T23:25:07.793Z,42.60
2019-05-15T23:27:38.178Z,42.70
2019-05-15T23:30:08.984Z,43.00
2019-05-15T23:32:39.204Z,43.30
2019-05-15T23:35:07.593Z,43.40
2019-05-15T23:37:36.027Z,43.70
2019-05-15T23:40:08.691Z,44.00
2019-05-15T23:42:38.971Z,44.30
2019-05-15T23:45:07.474Z,44.50
2019-05-15T23:47:38.078Z,44.70
2019-05-15T23:50:06.213Z,44.70
2019-05-15T23:52:34.706Z,45.10
2019-05-15T23:55:04.234Z,45.30
2019-05-15T23:57:32.647Z,46.10
